createdAt,value
2023-01-31T00:01:48.065Z,2.71
2023-01-31T00:04:16.941Z,2.67
2023-01-31T00:06:51.354Z,2.65
2023-01-31T00:09:21.218Z,2.63
2023-01-31T00:11:52.612Z,2.65
2023-01-31T00:14:22.508Z,2.65
2023-01-31T00:16:52.837Z,2.65
2023-01-31T00:19:22.782Z,2.64
2023-01-31T00:21:52.118Z,2.63
2023-01-31T00:24:21.020Z,2.60
2023-01-31T00:26:56.949Z,2.59
2023-01-31T00:29:26.616Z,2.56
2023-01-31T00:31:56.311Z,2.54
2023-01-31T00:34:26.014Z,2.54
2023-01-31T00:36:55.472Z,2.52
2023-01-31T00:39:25.795Z,2.50
2023-01-31T00:41:56.068Z,2.48
2023-01-31T00:44:26.537Z,2.48
2023-01-31T00:46:55.912Z,2.47
2023-01-31T00:49:26.519Z,2.39
2023-01-31T00:51:55.110Z,2.36
2023-01-31T00:54:24.645Z,2.35
2023-01-31T00:56:56.505Z,2.33
2023-01-31T00:59:26.526Z,2.32
2023-01-31T01:01:56.075Z,2.27
2023-01-31T01:04:24.996Z,2.20
2023-01-31T01:06:55.633Z,2.18
2023-01-31T01:09:26.096Z,2.22
2023-01-31T01:11:56.522Z,2.20
2023-01-31T01:14:26.531Z,2.21
2023-01-31T01:16:58.422Z,2.21
2023-01-31T01:19:28.553Z,2.21
2023-01-31T01:21:59.048Z,2.18
2023-01-31T01:24:29.650Z,2.19
2023-01-31T01:27:00.447Z,2.11
2023-01-31T01:29:30.366Z,2.12
2023-01-31T01:32:00.792Z,2.12
2023-01-31T01:34:29.858Z,2.13
2023-01-31T01:36:58.473Z,2.13
2023-01-31T01:39:30.795Z,2.11
2023-01-31T01:42:02.256Z,2.11
2023-01-31T01:44:50.226Z,2.15
2023-01-31T01:47:32.972Z,2.13
2023-01-31T01:50:09.277Z,2.11
2023-01-31T01:52:46.964Z,2.07
2023-01-31T01:55:23.655Z,2.09
2023-01-31T01:58:02.609Z,2.08
2023-01-31T02:00:35.078Z,2.02
2023-01-31T02:03:08.755Z,2.04
2023-01-31T02:05:44.276Z,2.02
2023-01-31T02:08:15.292Z,2.02
2023-01-31T02:10:50.971Z,1.97
2023-01-31T02:13:23.595Z,1.97
2023-01-31T02:15:52.802Z,1.93
2023-01-31T02:18:25.423Z,1.89
2023-01-31T02:21:50.494Z,1.82
2023-01-31T02:25:13.984Z,1.80
2023-01-31T02:28:23.135Z,1.78
2023-01-31T02:31:47.320Z,1.78
2023-01-31T02:34:31.940Z,1.74
2023-01-31T02:37:21.458Z,1.73
2023-01-31T02:40:08.620Z,1.72
2023-01-31T02:43:00.739Z,1.69
2023-01-31T02:45:41.155Z,1.62
2023-01-31T02:48:25.560Z,1.55
2023-01-31T02:51:06.647Z,1.54
2023-01-31T02:53:39.436Z,1.49
2023-01-31T02:56:15.119Z,1.50
2023-01-31T02:58:50.729Z,1.49
2023-01-31T03:01:28.005Z,1.50
2023-01-31T03:04:03.592Z,1.46
2023-01-31T03:07:02.287Z,1.42
2023-01-31T03:09:55.812Z,1.38
2023-01-31T03:12:46.716Z,1.37
2023-01-31T03:15:52.169Z,1.36
2023-01-31T03:18:28.114Z,1.32
2023-01-31T03:21:05.646Z,1.32
2023-01-31T03:23:40.215Z,1.34
2023-01-31T03:26:10.886Z,1.30
2023-01-31T03:28:44.246Z,1.26
2023-01-31T03:31:24.167Z,1.25
2023-01-31T03:33:58.527Z,1.23
2023-01-31T03:36:37.484Z,1.21
2023-01-31T03:39:18.912Z,1.17
2023-01-31T03:41:59.858Z,1.18
2023-01-31T03:44:42.186Z,1.16
2023-01-31T03:47:19.760Z,1.13
2023-01-31T03:49:54.484Z,1.12
2023-01-31T03:52:30.672Z,1.11
2023-01-31T03:55:09.557Z,1.10
2023-01-31T03:57:43.984Z,1.09
2023-01-31T04:00:18.204Z,1.09
2023-01-31T04:02:51.607Z,1.08
2023-01-31T04:05:25.108Z,1.08
2023-01-31T04:07:54.996Z,1.07
2023-01-31T04:10:27.128Z,1.06
2023-01-31T04:12:57.706Z,1.04
2023-01-31T04:15:29.348Z,1.01
2023-01-31T04:17:59.808Z,1.00
2023-01-31T04:20:29.915Z,1.00
2023-01-31T04:23:00.491Z,0.98
2023-01-31T04:25:32.815Z,0.99
2023-01-31T04:28:04.007Z,0.97
2023-01-31T04:30:34.518Z,0.95
2023-01-31T04:33:04.022Z,0.96
2023-01-31T04:35:35.691Z,0.99
2023-01-31T04:38:05.131Z,0.97
2023-01-31T04:40:36.553Z,0.95
2023-01-31T04:43:06.223Z,0.96
2023-01-31T04:45:35.811Z,0.95
2023-01-31T04:48:08.885Z,0.96
2023-01-31T04:50:37.357Z,1.00
2023-01-31T04:53:08.786Z,1.01
2023-01-31T04:55:40.572Z,1.03
2023-01-31T04:58:10.417Z,1.04
2023-01-31T05:00:40.618Z,1.07
2023-01-31T05:03:11.081Z,1.10
2023-01-31T05:05:40.576Z,1.13
2023-01-31T05:08:09.418Z,1.15
2023-01-31T05:10:41.766Z,1.15
2023-01-31T05:13:10.812Z,1.16
2023-01-31T05:15:41.738Z,1.18
2023-01-31T05:18:12.162Z,1.20
2023-01-31T05:20:41.144Z,1.21
2023-01-31T05:23:11.577Z,1.22
2023-01-31T05:25:42.779Z,1.22
2023-01-31T05:28:12.563Z,1.23
2023-01-31T05:30:42.858Z,1.26
2023-01-31T05:33:12.628Z,1.27
2023-01-31T05:35:42.604Z,1.29
2023-01-31T05:38:12.608Z,1.32
2023-01-31T05:40:43.491Z,1.35
2023-01-31T05:43:12.776Z,1.39
2023-01-31T05:45:42.983Z,1.40
2023-01-31T05:48:12.488Z,1.45
2023-01-31T05:50:42.351Z,1.47
2023-01-31T05:53:12.821Z,1.49
2023-01-31T05:55:45.172Z,1.47
2023-01-31T05:58:15.055Z,1.52
2023-01-31T06:00:44.438Z,1.55
2023-01-31T06:03:14.607Z,1.59
2023-01-31T06:05:45.661Z,1.59
2023-01-31T06:08:15.623Z,1.59
2023-01-31T06:10:47.202Z,1.64
2023-01-31T06:13:17.340Z,1.66
2023-01-31T06:15:47.295Z,1.65
2023-01-31T06:18:17.920Z,1.66
2023-01-31T06:20:47.845Z,1.67
2023-01-31T06:23:17.920Z,1.68
2023-01-31T06:25:52.514Z,1.71
2023-01-31T06:28:22.233Z,1.70
2023-01-31T06:30:52.649Z,1.73
2023-01-31T06:33:31.479Z,1.74
2023-01-31T06:36:08.465Z,1.75
2023-01-31T06:38:39.085Z,1.77
2023-01-31T06:41:09.037Z,1.78
2023-01-31T06:43:39.111Z,1.78
2023-01-31T06:46:09.079Z,1.79
2023-01-31T06:48:39.833Z,1.81
2023-01-31T06:51:09.378Z,1.81
2023-01-31T06:53:38.352Z,1.83
2023-01-31T06:56:10.578Z,1.84
2023-01-31T06:58:40.092Z,1.87
2023-01-31T07:01:11.313Z,1.85
2023-01-31T07:03:41.158Z,1.84
2023-01-31T07:06:12.961Z,1.87
2023-01-31T07:08:42.997Z,1.89
2023-01-31T07:11:14.442Z,1.89
2023-01-31T07:13:46.941Z,1.86
2023-01-31T07:16:17.651Z,1.91
2023-01-31T07:18:48.237Z,1.93
2023-01-31T07:21:17.746Z,1.92
2023-01-31T07:23:48.312Z,1.95
2023-01-31T07:26:18.832Z,1.94
2023-01-31T07:28:48.367Z,1.95
2023-01-31T07:31:18.241Z,1.95
2023-01-31T07:33:47.901Z,1.91
2023-01-31T07:36:20.050Z,1.96
2023-01-31T07:38:50.681Z,1.95
2023-01-31T07:41:23.149Z,1.95
2023-01-31T07:43:52.797Z,1.97
2023-01-31T07:46:21.793Z,1.98
2023-01-31T07:48:50.811Z,1.99
2023-01-31T07:51:21.407Z,1.98
2023-01-31T07:53:52.678Z,1.99
2023-01-31T07:56:24.730Z,1.98
2023-01-31T07:58:55.184Z,1.97
2023-01-31T08:01:44.595Z,2.00
2023-01-31T08:04:22.382Z,2.00
2023-01-31T08:06:57.187Z,2.01
2023-01-31T08:09:26.937Z,2.02
2023-01-31T08:11:57.700Z,2.02
2023-01-31T08:14:29.402Z,2.00
2023-01-31T08:16:58.439Z,1.99
2023-01-31T08:19:29.717Z,1.91
2023-01-31T08:22:00.309Z,1.92
2023-01-31T08:24:30.689Z,1.92
2023-01-31T08:27:02.821Z,1.81
2023-01-31T08:29:32.906Z,1.85
2023-01-31T08:32:03.890Z,1.85
2023-01-31T08:34:33.680Z,1.84
2023-01-31T08:37:02.754Z,1.86
2023-01-31T08:39:33.581Z,1.92
2023-01-31T08:42:04.606Z,1.97
2023-01-31T08:44:33.988Z,1.98
2023-01-31T08:47:04.517Z,1.96
2023-01-31T08:49:37.677Z,1.95
2023-01-31T08:52:08.387Z,1.91
2023-01-31T08:54:39.212Z,1.95
2023-01-31T08:57:11.032Z,1.99
2023-01-31T08:59:42.137Z,2.02
2023-01-31T09:02:13.319Z,2.01
2023-01-31T09:04:43.434Z,1.99
2023-01-31T09:07:12.937Z,2.04
2023-01-31T09:09:43.475Z,2.06
2023-01-31T09:12:14.722Z,2.02
2023-01-31T09:14:44.787Z,2.06
2023-01-31T09:17:14.327Z,2.02
2023-01-31T09:19:44.768Z,2.03
2023-01-31T09:22:15.579Z,2.05
2023-01-31T09:24:46.240Z,2.09
2023-01-31T09:27:17.566Z,2.15
2023-01-31T09:29:47.459Z,2.19
2023-01-31T09:32:17.471Z,2.19
2023-01-31T09:34:47.840Z,2.26
2023-01-31T09:37:17.679Z,2.27
2023-01-31T09:39:47.184Z,2.24
2023-01-31T09:42:27.424Z,2.20
2023-01-31T09:45:06.281Z,2.26
2023-01-31T09:47:43.571Z,2.33
2023-01-31T09:50:24.658Z,2.33
2023-01-31T09:52:53.731Z,2.38
2023-01-31T09:55:38.098Z,2.35
2023-01-31T09:58:25.182Z,2.36
2023-01-31T10:01:12.937Z,2.41
2023-01-31T10:04:05.906Z,2.47
2023-01-31T10:06:45.517Z,2.48
2023-01-31T10:09:28.504Z,2.52
2023-01-31T10:12:06.901Z,2.54
2023-01-31T10:14:48.318Z,2.52
2023-01-31T10:17:24.005Z,2.55
2023-01-31T10:19:58.748Z,2.61
2023-01-31T10:22:39.749Z,2.59
2023-01-31T10:25:25.650Z,2.66
2023-01-31T10:28:03.506Z,2.70
2023-01-31T10:30:44.430Z,2.72
2023-01-31T10:33:29.371Z,2.75
2023-01-31T10:36:02.923Z,2.72
2023-01-31T10:38:41.991Z,2.77
2023-01-31T10:41:19.762Z,2.81
2023-01-31T10:44:01.293Z,2.85
2023-01-31T10:46:33.374Z,2.92
2023-01-31T10:49:04.843Z,2.98
2023-01-31T10:52:07.320Z,3.07
2023-01-31T10:54:54.670Z,3.12
2023-01-31T10:57:25.605Z,3.14
2023-01-31T10:59:56.853Z,3.07
2023-01-31T11:02:29.882Z,3.06
2023-01-31T11:05:02.512Z,3.10
2023-01-31T11:07:33.459Z,3.14
2023-01-31T11:10:24.245Z,3.17
2023-01-31T11:13:00.356Z,3.20
2023-01-31T11:15:39.196Z,3.14
2023-01-31T11:18:18.120Z,3.13
2023-01-31T11:20:50.541Z,3.14
2023-01-31T11:23:26.245Z,3.21
2023-01-31T11:25:57.268Z,3.24
2023-01-31T11:28:37.299Z,3.25
2023-01-31T11:31:16.183Z,3.23
2023-01-31T11:33:56.932Z,3.26
2023-01-31T11:36:27.009Z,3.27
2023-01-31T11:38:57.236Z,3.29
2023-01-31T11:41:39.145Z,3.32
2023-01-31T11:44:16.732Z,3.36
2023-01-31T11:47:14.054Z,3.34
2023-01-31T11:49:48.667Z,3.34
2023-01-31T11:52:23.686Z,3.37
2023-01-31T11:55:00.513Z,3.40
2023-01-31T11:57:35.180Z,3.33
2023-01-31T12:00:09.981Z,3.38
2023-01-31T12:02:42.849Z,3.39
2023-01-31T12:05:17.343Z,3.33
2023-01-31T12:07:51.000Z,3.35
2023-01-31T12:10:42.522Z,3.33
2023-01-31T12:13:19.276Z,3.40
2023-01-31T12:15:57.369Z,3.46
2023-01-31T12:19:10.080Z,3.44
2023-01-31T12:22:02.563Z,3.46
2023-01-31T12:24:47.385Z,3.48
2023-01-31T12:27:39.076Z,3.45
2023-01-31T12:30:34.901Z,3.47
2023-01-31T12:33:46.344Z,3.50
2023-01-31T12:36:38.612Z,3.50
2023-01-31T12:39:42.207Z,3.57
2023-01-31T12:42:36.660Z,3.58
2023-01-31T12:45:26.469Z,3.58
2023-01-31T12:48:46.777Z,3.55
2023-01-31T12:51:39.307Z,3.59
2023-01-31T12:54:32.215Z,3.61
2023-01-31T12:57:25.660Z,3.61
2023-01-31T13:00:12.215Z,3.64
2023-01-31T13:02:56.407Z,3.63
2023-01-31T13:05:34.968Z,3.62
2023-01-31T13:08:11.323Z,3.63
2023-01-31T13:10:48.605Z,3.65
2023-01-31T13:13:27.190Z,3.66
2023-01-31T13:16:05.613Z,3.73
2023-01-31T13:18:37.846Z,3.74
2023-01-31T13:21:14.224Z,3.77
2023-01-31T13:23:49.559Z,3.74
2023-01-31T13:26:24.394Z,3.79
2023-01-31T13:29:03.182Z,3.81
2023-01-31T13:31:44.810Z,3.86
2023-01-31T13:34:24.138Z,3.89
2023-01-31T13:37:02.598Z,3.91
2023-01-31T13:39:40.373Z,3.96
2023-01-31T13:42:17.010Z,3.97
2023-01-31T13:44:50.755Z,3.98
2023-01-31T13:47:27.203Z,3.99
2023-01-31T13:50:03.156Z,4.00
2023-01-31T13:52:37.175Z,4.04
2023-01-31T13:55:18.207Z,4.05
2023-01-31T13:58:00.219Z,4.07
2023-01-31T14:00:41.644Z,4.07
2023-01-31T14:03:14.352Z,4.09
2023-01-31T14:06:19.601Z,4.16
2023-01-31T14:09:02.774Z,4.17
2023-01-31T14:11:36.748Z,4.18
2023-01-31T14:14:39.740Z,4.23
2023-01-31T14:17:13.403Z,4.23
2023-01-31T14:20:09.169Z,4.26
2023-01-31T14:22:42.259Z,4.26
2023-01-31T14:25:16.946Z,4.29
2023-01-31T14:28:02.600Z,4.32
2023-01-31T14:30:41.838Z,4.29
2023-01-31T14:33:30.935Z,4.29
2023-01-31T14:36:34.700Z,4.31
2023-01-31T14:39:48.909Z,4.36
2023-01-31T14:43:02.832Z,4.37
2023-01-31T14:46:07.573Z,4.42
2023-01-31T14:49:14.460Z,4.43
2023-01-31T14:52:10.134Z,4.42
2023-01-31T14:55:28.542Z,4.45
2023-01-31T14:58:03.191Z,4.46
2023-01-31T15:00:39.350Z,4.46
2023-01-31T15:03:17.957Z,4.47
2023-01-31T15:05:51.804Z,4.47
2023-01-31T15:09:04.646Z,4.49
2023-01-31T15:11:44.555Z,4.49
2023-01-31T15:14:35.231Z,4.50
2023-01-31T15:17:33.029Z,4.49
2023-01-31T15:20:19.815Z,4.52
2023-01-31T15:22:52.024Z,4.47
2023-01-31T15:25:32.454Z,4.48
2023-01-31T15:28:06.573Z,4.48
2023-01-31T15:30:38.532Z,4.49
2023-01-31T15:33:17.803Z,4.53
2023-01-31T15:35:54.453Z,4.49
2023-01-31T15:38:33.959Z,4.54
2023-01-31T15:41:22.992Z,4.53
2023-01-31T15:43:54.104Z,4.53
2023-01-31T15:46:29.095Z,4.56
2023-01-31T15:49:01.101Z,4.56
2023-01-31T15:51:32.276Z,4.58
2023-01-31T15:54:07.489Z,4.58
2023-01-31T15:56:41.565Z,4.56
2023-01-31T15:59:15.448Z,4.56
2023-01-31T16:01:50.218Z,4.60
2023-01-31T16:04:21.465Z,4.58
2023-01-31T16:06:52.978Z,4.55
2023-01-31T16:09:28.372Z,4.55
2023-01-31T16:11:58.854Z,4.60
2023-01-31T16:14:29.403Z,4.60
2023-01-31T16:17:00.570Z,4.62
2023-01-31T16:19:36.452Z,4.61
2023-01-31T16:22:20.465Z,4.63
2023-01-31T16:24:58.902Z,4.62
2023-01-31T16:27:33.033Z,4.64
2023-01-31T16:30:03.166Z,4.65
2023-01-31T16:32:38.197Z,4.64
2023-01-31T16:35:23.092Z,4.67
2023-01-31T16:38:04.214Z,4.65
2023-01-31T16:40:39.086Z,4.65
2023-01-31T16:43:19.852Z,4.63
2023-01-31T16:45:57.284Z,4.60
2023-01-31T16:48:30.152Z,4.62
2023-01-31T16:51:22.415Z,4.63
2023-01-31T16:54:19.796Z,4.65
2023-01-31T16:57:07.280Z,4.66
2023-01-31T16:59:49.677Z,4.66
2023-01-31T17:02:27.482Z,4.65
2023-01-31T17:05:00.772Z,4.65
2023-01-31T17:07:35.987Z,4.66
2023-01-31T17:10:09.926Z,4.67
2023-01-31T17:12:41.204Z,4.67
2023-01-31T17:15:17.745Z,4.66
2023-01-31T17:17:48.540Z,4.66
2023-01-31T17:20:22.145Z,4.66
2023-01-31T17:23:02.316Z,4.68
2023-01-31T17:25:37.033Z,4.69
2023-01-31T17:28:07.238Z,4.68
2023-01-31T17:30:38.863Z,4.69
2023-01-31T17:33:09.047Z,4.71
2023-01-31T17:35:40.476Z,4.67
2023-01-31T17:38:12.218Z,4.69
2023-01-31T17:40:50.197Z,4.71
2023-01-31T17:43:25.190Z,4.75
2023-01-31T17:45:55.581Z,4.74
2023-01-31T17:48:26.644Z,4.73
2023-01-31T17:50:56.341Z,4.77
2023-01-31T17:53:27.660Z,4.76
2023-01-31T17:55:59.958Z,4.79
2023-01-31T17:58:29.804Z,4.81
2023-01-31T18:00:58.855Z,4.81
2023-01-31T18:03:28.753Z,4.83
2023-01-31T18:06:04.927Z,4.82
2023-01-31T18:08:35.331Z,4.83
2023-01-31T18:11:09.663Z,4.84
2023-01-31T18:13:39.842Z,4.83
2023-01-31T18:16:10.963Z,4.84
2023-01-31T18:18:41.538Z,4.84
2023-01-31T18:21:11.594Z,4.83
2023-01-31T18:23:43.320Z,4.87
2023-01-31T18:26:13.476Z,4.88
2023-01-31T18:28:42.080Z,4.87
2023-01-31T18:31:14.425Z,4.89
2023-01-31T18:33:45.997Z,4.89
2023-01-31T18:36:18.737Z,4.88
2023-01-31T18:38:50.536Z,4.87
2023-01-31T18:41:22.466Z,4.90
2023-01-31T18:43:52.218Z,4.89
2023-01-31T18:46:22.220Z,4.89
2023-01-31T18:48:51.338Z,4.87
2023-01-31T18:51:21.329Z,4.89
2023-01-31T18:53:52.610Z,4.88
2023-01-31T18:56:24.060Z,4.89
2023-01-31T18:58:55.422Z,4.89
2023-01-31T19:01:28.613Z,4.89
2023-01-31T19:03:59.033Z,4.91
2023-01-31T19:06:29.685Z,4.91
2023-01-31T19:09:01.976Z,4.90
2023-01-31T19:11:32.341Z,4.91
2023-01-31T19:14:07.512Z,4.90
2023-01-31T19:16:40.900Z,4.92
2023-01-31T19:19:14.023Z,4.92
2023-01-31T19:21:44.547Z,4.91
2023-01-31T19:24:16.495Z,4.91
2023-01-31T19:26:46.427Z,4.92
2023-01-31T19:29:17.230Z,4.92
2023-01-31T19:31:46.090Z,4.93
2023-01-31T19:34:15.211Z,4.89
2023-01-31T19:36:47.142Z,4.87
2023-01-31T19:39:18.308Z,4.88
2023-01-31T19:41:46.835Z,4.89
2023-01-31T19:44:16.337Z,4.91
2023-01-31T19:46:46.983Z,4.94
2023-01-31T19:49:16.329Z,4.93
2023-01-31T19:51:46.187Z,4.94
2023-01-31T19:54:19.343Z,4.91
2023-01-31T19:56:50.036Z,4.92
2023-01-31T19:59:20.719Z,4.91
2023-01-31T20:01:50.431Z,4.91
2023-01-31T20:04:19.265Z,4.95
2023-01-31T20:06:48.137Z,4.93
2023-01-31T20:09:20.675Z,4.94
2023-01-31T20:11:51.174Z,4.91
2023-01-31T20:14:21.611Z,4.92
2023-01-31T20:16:50.243Z,4.92
2023-01-31T20:19:20.551Z,4.94
2023-01-31T20:21:50.823Z,4.98
2023-01-31T20:24:21.216Z,4.98
2023-01-31T20:26:50.473Z,4.98
2023-01-31T20:29:19.953Z,5.01
2023-01-31T20:31:49.996Z,5.00
2023-01-31T20:34:20.284Z,5.00
2023-01-31T20:36:49.243Z,5.00
2023-01-31T20:39:19.887Z,5.02
2023-01-31T20:41:49.482Z,5.02
2023-01-31T20:44:19.530Z,5.04
2023-01-31T20:46:49.697Z,5.04
2023-01-31T20:49:21.407Z,5.04
2023-01-31T20:51:51.476Z,5.07
2023-01-31T20:54:22.815Z,5.05
2023-01-31T20:56:52.957Z,5.04
2023-01-31T20:59:23.062Z,5.08
2023-01-31T21:01:52.856Z,5.11
2023-01-31T21:04:21.276Z,5.09
2023-01-31T21:06:50.338Z,5.08
2023-01-31T21:09:23.094Z,5.11
2023-01-31T21:11:52.957Z,5.10
2023-01-31T21:14:22.528Z,5.10
2023-01-31T21:16:52.492Z,5.13
2023-01-31T21:19:22.224Z,5.13
2023-01-31T21:21:52.710Z,5.14
2023-01-31T21:24:23.080Z,5.13
2023-01-31T21:26:53.426Z,5.11
2023-01-31T21:29:24.407Z,5.15
2023-01-31T21:31:53.338Z,5.12
2023-01-31T21:34:23.093Z,5.14
2023-01-31T21:36:52.032Z,5.17
2023-01-31T21:39:22.060Z,5.17
2023-01-31T21:42:11.171Z,5.18
2023-01-31T21:44:40.049Z,5.16
2023-01-31T21:47:09.465Z,5.18
2023-01-31T21:49:39.033Z,5.20
2023-01-31T21:52:09.815Z,5.18
2023-01-31T21:54:40.248Z,5.20
2023-01-31T21:57:10.043Z,5.21
2023-01-31T21:59:39.624Z,5.19
2023-01-31T22:02:10.454Z,5.20
2023-01-31T22:04:40.396Z,5.20
2023-01-31T22:07:12.233Z,5.22
2023-01-31T22:09:43.036Z,5.23
2023-01-31T22:12:12.015Z,5.24
2023-01-31T22:14:41.804Z,5.22
2023-01-31T22:17:12.413Z,5.18
2023-01-31T22:19:42.280Z,5.19
2023-01-31T22:22:13.406Z,5.19
2023-01-31T22:24:45.646Z,5.21
2023-01-31T22:27:15.415Z,5.24
2023-01-31T22:29:44.244Z,5.25
2023-01-31T22:32:14.711Z,5.25
2023-01-31T22:34:44.828Z,5.27
2023-01-31T22:37:14.730Z,5.27
2023-01-31T22:39:45.586Z,5.26
2023-01-31T22:42:14.602Z,5.26
2023-01-31T22:44:44.089Z,5.27
2023-01-31T22:47:14.140Z,5.28
2023-01-31T22:49:43.731Z,5.27
2023-01-31T22:52:14.229Z,5.28
2023-01-31T22:54:46.396Z,5.27
2023-01-31T22:57:17.319Z,5.27
2023-01-31T22:59:46.725Z,5.27
2023-01-31T23:02:16.725Z,5.29
2023-01-31T23:04:46.672Z,5.31
2023-01-31T23:07:16.647Z,5.31
2023-01-31T23:09:49.034Z,5.30
2023-01-31T23:12:18.601Z,5.30
2023-01-31T23:14:47.343Z,5.33
2023-01-31T23:17:33.389Z,5.33
2023-01-31T23:20:04.876Z,5.33
2023-01-31T23:22:34.967Z,5.35
2023-01-31T23:25:07.606Z,5.35
2023-01-31T23:27:37.575Z,5.35
2023-01-31T23:30:11.197Z,5.37
2023-01-31T23:32:43.117Z,5.38
2023-01-31T23:35:13.334Z,5.37
2023-01-31T23:37:42.928Z,5.36
2023-01-31T23:40:15.399Z,5.34
2023-01-31T23:42:44.816Z,5.38
2023-01-31T23:45:13.993Z,5.37
2023-01-31T23:47:45.264Z,5.38
2023-01-31T23:50:14.360Z,5.40
2023-01-31T23:52:43.722Z,5.38
2023-01-31T23:55:14.643Z,5.36
2023-01-31T23:57:44.876Z,5.39
